createdAt,value
2018-11-13T00:01:44.054Z,2.57
2018-11-13T00:06:49.682Z,2.80
2018-11-13T00:09:17.777Z,2.50
2018-11-13T00:11:45.898Z,2.70
2018-11-13T00:14:14.049Z,2.60
2018-11-13T00:16:42.169Z,2.80
2018-11-13T00:19:10.275Z,2.80
2018-11-13T00:21:38.389Z,2.33
2018-11-13T00:24:06.562Z,2.23
2018-11-13T00:26:34.612Z,2.43
2018-11-13T00:29:02.721Z,2.97
2018-11-13T00:31:30.874Z,2.10
2018-11-13T00:33:58.955Z,2.90
2018-11-13T00:36:27.051Z,3.00
2018-11-13T00:38:55.235Z,3.03
2018-11-13T00:41:23.346Z,3.20
2018-11-13T00:43:51.477Z,3.13
2018-11-13T00:46:19.587Z,2.70
2018-11-13T00:48:47.690Z,2.13
2018-11-13T00:51:15.778Z,2.83
2018-11-13T00:53:43.863Z,2.93
2018-11-13T00:56:11.998Z,2.87
2018-11-13T00:58:40.087Z,2.80
2018-11-13T01:01:08.173Z,2.70
2018-11-13T01:03:36.249Z,3.17
2018-11-13T01:06:04.361Z,3.33
2018-11-13T01:08:32.458Z,3.80
2018-11-13T01:11:00.555Z,3.30
2018-11-13T01:13:29.096Z,2.67
2018-11-13T01:15:56.803Z,2.70
2018-11-13T01:18:24.913Z,3.10
2018-11-13T01:20:53.076Z,3.13
2018-11-13T01:23:21.189Z,3.43
2018-11-13T01:25:49.281Z,3.80
2018-11-13T01:28:17.366Z,2.80
2018-11-13T01:30:45.707Z,3.13
2018-11-13T01:33:13.798Z,4.27
2018-11-13T01:35:41.898Z,2.90
2018-11-13T01:38:09.995Z,3.27
2018-11-13T01:40:38.129Z,3.00
2018-11-13T01:43:06.255Z,3.37
2018-11-13T01:45:34.435Z,2.70
2018-11-13T01:48:02.580Z,2.50
2018-11-13T01:50:30.671Z,3.10
2018-11-13T01:52:58.788Z,2.10
2018-11-13T01:55:26.890Z,1.80
2018-11-13T01:57:55.015Z,2.20
2018-11-13T02:00:23.969Z,2.50
2018-11-13T02:02:53.268Z,2.83
2018-11-13T02:05:22.417Z,3.40
2018-11-13T02:07:50.959Z,2.40
2018-11-13T02:10:19.357Z,2.77
2018-11-13T02:12:48.786Z,2.40
2018-11-13T02:15:17.844Z,2.90
2018-11-13T02:17:45.971Z,3.00
2018-11-13T02:20:15.491Z,2.07
2018-11-13T02:22:43.739Z,2.83
2018-11-13T02:25:13.414Z,2.57
2018-11-13T02:27:42.086Z,2.23
2018-11-13T02:30:12.926Z,2.50
2018-11-13T02:32:41.556Z,2.93
2018-11-13T02:35:10.463Z,2.77
2018-11-13T02:37:38.587Z,2.53
2018-11-13T02:40:06.862Z,2.90
2018-11-13T02:42:36.139Z,3.17
2018-11-13T02:45:05.219Z,2.83
2018-11-13T02:47:33.331Z,2.53
2018-11-13T02:50:01.455Z,1.77
2018-11-13T02:52:29.574Z,2.33
2018-11-13T02:54:57.676Z,2.70
2018-11-13T02:57:25.819Z,2.90
2018-11-13T02:59:53.927Z,2.40
2018-11-13T03:02:22.090Z,2.50
2018-11-13T03:04:50.783Z,3.55
2018-11-13T03:07:18.919Z,2.80
2018-11-13T03:09:47.027Z,3.30
2018-11-13T03:12:15.122Z,2.83
2018-11-13T03:14:43.241Z,3.70
2018-11-13T03:17:11.385Z,2.47
2018-11-13T03:19:39.478Z,2.27
2018-11-13T03:22:07.579Z,2.40
2018-11-13T03:24:35.912Z,2.77
2018-11-13T03:27:04.050Z,2.80
2018-11-13T03:29:32.227Z,2.70
2018-11-13T03:32:00.374Z,2.77
2018-11-13T03:34:28.458Z,2.37
2018-11-13T03:36:56.567Z,2.25
2018-11-13T03:39:24.675Z,2.60
2018-11-13T03:41:52.880Z,3.27
2018-11-13T03:44:21.017Z,2.50
2018-11-13T03:46:49.140Z,3.23
2018-11-13T03:49:17.211Z,2.13
2018-11-13T03:51:45.247Z,1.90
2018-11-13T03:54:13.286Z,2.50
2018-11-13T03:56:41.367Z,2.50
2018-11-13T03:59:09.420Z,2.37
2018-11-13T04:01:37.480Z,1.90
2018-11-13T04:04:11.117Z,2.63
2018-11-13T04:06:39.151Z,2.43
2018-11-13T04:09:09.117Z,2.00
2018-11-13T04:11:37.249Z,3.00
2018-11-13T04:14:05.410Z,2.33
2018-11-13T04:16:33.471Z,2.40
2018-11-13T04:19:01.511Z,1.97
2018-11-13T04:21:29.538Z,1.90
2018-11-13T04:23:57.583Z,1.90
2018-11-13T04:26:25.860Z,2.17
2018-11-13T04:28:53.894Z,2.43
2018-11-13T04:31:21.937Z,1.50
2018-11-13T04:33:50.053Z,2.07
2018-11-13T04:36:18.185Z,2.00
2018-11-13T04:38:46.290Z,2.13
2018-11-13T04:41:14.374Z,2.17
2018-11-13T04:43:42.434Z,2.40
2018-11-13T04:46:10.527Z,2.53
2018-11-13T04:48:38.630Z,2.20
2018-11-13T04:51:06.683Z,2.37
2018-11-13T04:53:34.777Z,2.00
2018-11-13T04:56:02.899Z,2.23
2018-11-13T04:58:30.972Z,2.27
2018-11-13T05:00:59.038Z,2.30
2018-11-13T05:03:27.878Z,2.47
2018-11-13T05:05:56.010Z,2.50
2018-11-13T05:08:24.088Z,2.40
2018-11-13T05:10:52.144Z,2.30
2018-11-13T05:13:20.173Z,3.03
2018-11-13T05:15:48.210Z,2.67
2018-11-13T05:18:16.255Z,2.40
2018-11-13T05:20:44.328Z,2.30
2018-11-13T05:23:12.474Z,2.93
2018-11-13T05:25:40.495Z,2.37
2018-11-13T05:28:08.565Z,2.00
2018-11-13T05:30:36.631Z,2.20
2018-11-13T05:33:04.781Z,2.13
2018-11-13T05:35:32.848Z,2.23
2018-11-13T05:38:00.918Z,2.40
2018-11-13T05:40:28.987Z,4.07
2018-11-13T05:42:57.119Z,1.77
2018-11-13T05:45:26.109Z,2.80
2018-11-13T05:47:54.177Z,2.40
2018-11-13T05:50:22.219Z,2.77
2018-11-13T05:52:51.623Z,2.43
2018-11-13T05:55:19.694Z,3.33
2018-11-13T05:57:47.888Z,2.53
2018-11-13T06:00:17.474Z,2.77
2018-11-13T06:02:45.509Z,2.47
2018-11-13T06:05:13.949Z,2.23
2018-11-13T06:07:42.070Z,3.50
2018-11-13T06:10:11.002Z,2.87
2018-11-13T06:12:39.042Z,2.10
2018-11-13T06:15:07.584Z,2.10
2018-11-13T06:17:35.639Z,2.43
2018-11-13T06:20:03.882Z,2.17
2018-11-13T06:22:32.170Z,1.93
2018-11-13T06:25:00.247Z,2.13
2018-11-13T06:27:28.315Z,1.70
2018-11-13T06:29:56.392Z,1.90
2018-11-13T06:32:24.469Z,1.60
2018-11-13T06:34:52.499Z,2.13
2018-11-13T06:37:20.551Z,2.90
2018-11-13T06:39:48.594Z,1.77
2018-11-13T06:42:16.625Z,1.93
2018-11-13T06:44:44.715Z,2.30
2018-11-13T06:47:12.766Z,2.20
2018-11-13T06:49:40.848Z,3.60
2018-11-13T06:52:08.895Z,3.80
2018-11-13T06:54:54.803Z,1.70
2018-11-13T06:57:22.942Z,1.83
2018-11-13T06:59:51.059Z,1.90
2018-11-13T07:02:19.186Z,1.70
2018-11-13T07:04:47.347Z,2.53
2018-11-13T07:07:15.386Z,1.83
2018-11-13T07:09:43.426Z,2.30
2018-11-13T07:12:11.486Z,2.10
2018-11-13T07:14:39.531Z,2.33
2018-11-13T07:17:07.659Z,2.43
2018-11-13T07:19:35.739Z,1.83
2018-11-13T07:22:03.770Z,1.63
2018-11-13T07:24:31.944Z,1.97
2018-11-13T07:27:00.144Z,1.47
2018-11-13T07:29:28.270Z,2.17
2018-11-13T07:31:56.440Z,2.40
2018-11-13T07:34:24.835Z,1.50
2018-11-13T07:36:53.573Z,1.50
2018-11-13T07:39:21.912Z,1.80
2018-11-13T07:41:50.023Z,1.93
2018-11-13T07:44:18.212Z,1.77
2018-11-13T07:46:46.441Z,1.60
2018-11-13T07:49:14.596Z,1.80
2018-11-13T07:51:42.795Z,1.20
2018-11-13T07:54:10.930Z,1.40
2018-11-13T07:56:39.957Z,1.33
2018-11-13T07:59:08.201Z,1.63
2018-11-13T08:01:36.334Z,1.77
2018-11-13T08:04:04.680Z,2.00
2018-11-13T08:06:32.991Z,2.00
2018-11-13T08:09:01.094Z,2.20
2018-11-13T08:11:29.238Z,1.90
2018-11-13T08:13:57.331Z,2.13
2018-11-13T08:16:25.702Z,2.67
2018-11-13T08:18:53.809Z,1.75
2018-11-13T08:21:21.788Z,1.53
2018-11-13T08:23:49.930Z,2.30
2018-11-13T08:26:18.244Z,1.33
2018-11-13T08:28:46.456Z,1.77
2018-11-13T08:31:14.508Z,1.62
2018-11-13T08:33:43.038Z,1.73
2018-11-13T08:36:11.236Z,2.07
2018-11-13T08:38:39.390Z,2.00
2018-11-13T08:41:07.984Z,1.60
2018-11-13T08:43:36.158Z,1.33
2018-11-13T08:46:04.596Z,1.30
2018-11-13T08:48:32.751Z,2.10
2018-11-13T08:51:00.858Z,1.92
2018-11-13T08:53:28.992Z,1.80
2018-11-13T08:55:57.146Z,1.90
2018-11-13T08:58:25.374Z,1.90
2018-11-13T09:00:53.598Z,1.70
2018-11-13T09:03:21.772Z,1.90
2018-11-13T09:05:49.938Z,1.83
2018-11-13T09:08:18.088Z,1.77
2018-11-13T09:10:46.238Z,1.70
2018-11-13T09:13:14.667Z,2.77
2018-11-13T09:15:42.807Z,1.97
2018-11-13T09:18:11.075Z,1.90
2018-11-13T09:20:39.256Z,2.10
2018-11-13T09:23:07.448Z,2.70
2018-11-13T09:25:35.621Z,2.17
2018-11-13T09:28:03.789Z,1.80
2018-11-13T09:30:32.099Z,1.75
2018-11-13T09:33:00.047Z,1.70
2018-11-13T09:35:28.231Z,2.80
2018-11-13T09:37:56.369Z,2.05
2018-11-13T09:40:24.527Z,2.55
2018-11-13T09:42:52.755Z,2.23
2018-11-13T09:45:20.913Z,2.00
2018-11-13T09:47:49.197Z,2.23
2018-11-13T09:50:18.759Z,2.00
2018-11-13T09:52:48.558Z,1.70
2018-11-13T09:55:18.732Z,2.63
2018-11-13T09:57:47.734Z,2.22
2018-11-13T10:00:18.742Z,1.90
2018-11-13T10:02:51.618Z,2.03
2018-11-13T10:05:20.171Z,2.00
2018-11-13T10:07:48.855Z,2.50
2018-11-13T10:10:17.022Z,2.60
2018-11-13T10:12:45.086Z,2.40
2018-11-13T10:15:16.101Z,2.37
2018-11-13T10:17:44.316Z,2.03
2018-11-13T10:20:13.686Z,2.07
2018-11-13T10:22:43.002Z,1.50
2018-11-13T10:25:11.973Z,2.10
2018-11-13T10:27:40.529Z,3.17
2018-11-13T10:30:10.906Z,2.20
2018-11-13T10:32:39.187Z,2.30
2018-11-13T10:35:08.451Z,2.70
2018-11-13T10:37:36.939Z,2.47
2018-11-13T10:40:05.845Z,2.30
2018-11-13T10:42:33.854Z,2.95
2018-11-13T10:45:01.913Z,3.10
2018-11-13T10:47:29.947Z,2.57
2018-11-13T10:49:58.035Z,1.60
2018-11-13T10:52:26.374Z,2.30
2018-11-13T10:54:54.422Z,2.50
2018-11-13T10:57:22.827Z,2.50
2018-11-13T10:59:51.088Z,2.33
2018-11-13T11:02:24.446Z,1.77
2018-11-13T11:04:53.261Z,2.33
2018-11-13T11:07:21.395Z,2.73
2018-11-13T11:09:49.414Z,2.00
2018-11-13T11:12:17.446Z,4.10
2018-11-13T11:14:45.511Z,2.33
2018-11-13T11:17:13.539Z,2.03
2018-11-13T11:19:41.633Z,1.60
2018-11-13T11:22:09.679Z,1.80
2018-11-13T11:24:37.699Z,2.23
2018-11-13T11:27:05.726Z,2.00
2018-11-13T11:29:33.758Z,2.05
2018-11-13T11:32:01.803Z,2.40
2018-11-13T11:34:29.822Z,1.70
2018-11-13T11:36:57.847Z,1.80
2018-11-13T11:39:25.987Z,2.60
2018-11-13T11:41:54.016Z,2.50
2018-11-13T11:44:22.078Z,2.67
2018-11-13T11:46:50.087Z,2.20
2018-11-13T11:49:18.118Z,2.10
2018-11-13T11:51:46.146Z,1.63
2018-11-13T11:54:14.248Z,1.87
2018-11-13T11:56:42.327Z,2.47
2018-11-13T11:59:10.387Z,2.35
2018-11-13T12:01:38.426Z,3.20
2018-11-13T12:04:06.488Z,1.97
2018-11-13T12:06:34.534Z,2.20
2018-11-13T12:09:02.560Z,2.20
2018-11-13T12:11:30.594Z,2.33
2018-11-13T12:13:58.626Z,3.17
2018-11-13T12:16:26.661Z,2.10
2018-11-13T12:18:54.708Z,1.97
2018-11-13T12:21:22.736Z,2.67
2018-11-13T12:23:50.755Z,1.67
2018-11-13T12:26:19.095Z,1.67
2018-11-13T12:28:47.114Z,2.30
2018-11-13T12:31:15.138Z,2.10
2018-11-13T12:33:43.162Z,2.50
2018-11-13T12:36:11.203Z,2.53
2018-11-13T12:38:39.327Z,1.87
2018-11-13T12:41:07.394Z,2.30
2018-11-13T12:43:35.501Z,2.70
2018-11-13T12:46:03.547Z,2.40
2018-11-13T12:48:31.636Z,2.33
2018-11-13T12:51:04.794Z,2.70
2018-11-13T12:53:33.366Z,1.93
2018-11-13T12:56:01.860Z,2.10
2018-11-13T12:58:30.694Z,2.23
2018-11-13T13:00:58.704Z,2.10
2018-11-13T13:03:26.729Z,1.60
2018-11-13T13:05:54.794Z,2.13
2018-11-13T13:08:22.848Z,2.30
2018-11-13T13:10:50.903Z,1.95
2018-11-13T13:13:18.978Z,2.27
2018-11-13T13:15:47.048Z,2.10
2018-11-13T13:18:15.103Z,2.03
2018-11-13T13:20:43.130Z,2.22
2018-11-13T13:23:11.262Z,2.17
2018-11-13T13:25:39.328Z,1.80
2018-11-13T13:28:07.418Z,1.43
2018-11-13T13:30:35.485Z,2.00
2018-11-13T13:33:03.536Z,2.73
2018-11-13T13:35:50.354Z,2.50
2018-11-13T13:38:18.391Z,3.00
2018-11-13T13:40:47.845Z,1.93
2018-11-13T13:43:16.351Z,3.20
2018-11-13T13:45:45.342Z,2.02
2018-11-13T13:48:13.382Z,2.10
2018-11-13T13:50:41.402Z,2.30
2018-11-13T13:53:10.471Z,2.30
2018-11-13T13:55:38.615Z,1.97
2018-11-13T13:58:06.858Z,1.70
2018-11-13T14:00:34.945Z,1.87
2018-11-13T14:03:02.948Z,2.30
2018-11-13T14:05:30.994Z,1.95
2018-11-13T14:07:59.040Z,2.30
2018-11-13T14:10:27.063Z,3.00
2018-11-13T14:12:55.098Z,2.20
2018-11-13T14:15:23.186Z,3.27
2018-11-13T14:17:51.169Z,2.20
2018-11-13T14:20:20.262Z,1.80
2018-11-13T14:22:48.323Z,2.13
2018-11-13T14:25:16.392Z,1.60
2018-11-13T14:27:44.718Z,2.03
2018-11-13T14:30:17.540Z,2.43
2018-11-13T14:32:46.423Z,1.80
2018-11-13T14:35:14.801Z,2.47
2018-11-13T14:37:42.907Z,1.93
2018-11-13T14:40:15.663Z,2.00
2018-11-13T14:42:44.435Z,2.30
2018-11-13T14:45:12.506Z,2.67
2018-11-13T14:47:41.502Z,1.43
2018-11-13T14:50:10.033Z,1.70
2018-11-13T14:52:38.058Z,1.80
2018-11-13T14:55:08.410Z,1.73
2018-11-13T14:57:36.419Z,1.80
2018-11-13T15:00:05.795Z,2.60
2018-11-13T15:02:33.842Z,1.80
2018-11-13T15:05:02.023Z,1.90
2018-11-13T15:07:30.083Z,1.63
2018-11-13T15:09:58.174Z,2.37
2018-11-13T15:12:26.227Z,2.10
2018-11-13T15:14:54.258Z,1.87
2018-11-13T15:17:22.380Z,1.67
2018-11-13T15:19:50.433Z,1.47
2018-11-13T15:22:18.569Z,2.03
2018-11-13T15:24:46.898Z,1.60
2018-11-13T15:27:14.947Z,1.90
2018-11-13T15:29:43.012Z,1.60
2018-11-13T15:32:11.022Z,1.70
2018-11-13T15:34:39.139Z,1.93
2018-11-13T15:37:07.251Z,2.33
2018-11-13T15:39:35.283Z,2.10
2018-11-13T15:42:03.386Z,1.90
2018-11-13T15:44:31.484Z,2.70
2018-11-13T15:46:59.503Z,2.13
2018-11-13T15:49:27.539Z,2.00
2018-11-13T15:51:55.702Z,2.10
2018-11-13T15:54:23.732Z,1.70
2018-11-13T15:56:51.879Z,1.70
2018-11-13T15:59:20.012Z,1.80
2018-11-13T16:01:48.020Z,1.47
2018-11-13T16:04:16.107Z,1.70
2018-11-13T16:06:44.260Z,1.63
2018-11-13T16:09:12.294Z,2.83
2018-11-13T16:11:40.367Z,2.20
2018-11-13T16:14:08.426Z,2.13
2018-11-13T16:16:36.454Z,2.20
2018-11-13T16:19:04.578Z,1.62
2018-11-13T16:21:32.639Z,1.57
2018-11-13T16:24:00.646Z,1.40
2018-11-13T16:26:28.664Z,1.90
2018-11-13T16:28:56.687Z,1.42
2018-11-13T16:31:24.768Z,1.65
2018-11-13T16:33:52.758Z,2.30
2018-11-13T16:36:20.989Z,2.63
2018-11-13T16:38:49.015Z,1.90
2018-11-13T16:41:17.094Z,1.87
2018-11-13T16:43:45.167Z,2.07
2018-11-13T16:46:13.210Z,2.10
2018-11-13T16:48:41.542Z,1.30
2018-11-13T16:51:09.614Z,1.87
2018-11-13T16:53:43.012Z,1.50
2018-11-13T16:56:10.974Z,1.50
2018-11-13T16:58:39.058Z,1.63
2018-11-13T17:01:07.213Z,1.77
2018-11-13T17:03:35.407Z,1.70
2018-11-13T17:06:03.444Z,2.10
2018-11-13T17:08:31.455Z,2.70
2018-11-13T17:10:59.568Z,2.47
2018-11-13T17:13:27.646Z,2.20
2018-11-13T17:15:55.685Z,1.92
2018-11-13T17:18:23.774Z,2.33
2018-11-13T17:20:51.859Z,6.20
2018-11-13T17:23:19.984Z,10.97
2018-11-13T17:25:48.063Z,6.63
2018-11-13T17:28:16.070Z,7.00
2018-11-13T17:30:44.143Z,6.43
2018-11-13T17:33:12.254Z,13.70
2018-11-13T17:35:40.494Z,11.63
2018-11-13T17:38:08.628Z,15.23
2018-11-13T17:40:37.315Z,14.10
2018-11-13T17:43:06.485Z,14.17
2018-11-13T17:45:35.774Z,12.77
2018-11-13T17:48:03.883Z,10.90
2018-11-13T17:50:33.211Z,12.07
2018-11-13T17:53:01.407Z,10.20
2018-11-13T17:55:29.511Z,9.80
2018-11-13T17:57:59.174Z,9.30
2018-11-13T18:00:31.172Z,10.50
2018-11-13T18:02:59.554Z,10.65
2018-11-13T18:05:28.067Z,9.33
2018-11-13T18:07:57.209Z,9.43
2018-11-13T18:10:25.691Z,8.33
2018-11-13T18:12:53.720Z,8.73
2018-11-13T18:15:23.035Z,8.60
2018-11-13T18:17:51.347Z,7.90
2018-11-13T18:20:20.839Z,7.90
2018-11-13T18:22:48.931Z,7.70
2018-11-13T18:25:16.976Z,8.10
2018-11-13T18:27:47.421Z,7.70
2018-11-13T18:30:24.279Z,6.63
2018-11-13T18:32:52.739Z,7.70
2018-11-13T18:35:22.203Z,7.57
2018-11-13T18:37:51.045Z,6.40
2018-11-13T18:40:20.028Z,7.10
2018-11-13T18:42:49.051Z,6.63
2018-11-13T18:45:27.070Z,7.60
2018-11-13T18:47:55.166Z,7.20
2018-11-13T18:50:25.577Z,6.37
2018-11-13T18:52:53.663Z,6.27
2018-11-13T18:55:21.770Z,5.90
2018-11-13T18:57:49.855Z,5.27
2018-11-13T19:00:25.514Z,5.73
2018-11-13T19:02:53.561Z,6.20
2018-11-13T19:05:22.168Z,6.10
2018-11-13T19:07:50.322Z,5.80
2018-11-13T19:10:26.749Z,5.00
2018-11-13T19:12:56.048Z,6.03
2018-11-13T19:15:24.112Z,5.90
2018-11-13T19:17:52.672Z,6.80
2018-11-13T19:20:21.740Z,5.53
2018-11-13T19:22:49.710Z,5.20
2018-11-13T19:25:19.209Z,5.60
2018-11-13T19:27:47.806Z,4.87
2018-11-13T19:30:17.046Z,5.70
2018-11-13T19:32:45.075Z,6.23
2018-11-13T19:35:13.627Z,6.90
2018-11-13T19:37:41.812Z,5.33
2018-11-13T19:40:12.466Z,5.00
2018-11-13T19:42:40.564Z,5.00
2018-11-13T19:45:08.986Z,5.23
2018-11-13T19:47:37.781Z,5.40
2018-11-13T19:50:07.534Z,4.50
2018-11-13T19:52:35.619Z,4.60
2018-11-13T19:55:03.850Z,4.80
2018-11-13T19:57:31.946Z,4.00
2018-11-13T19:59:59.994Z,4.53
2018-11-13T20:05:18.215Z,6.13
2018-11-13T20:07:46.446Z,5.30
2018-11-13T20:10:17.417Z,4.70
2018-11-13T20:12:46.810Z,5.50
2018-11-13T20:15:15.263Z,4.90
2018-11-13T20:17:43.396Z,3.70
2018-11-13T20:20:14.988Z,3.70
2018-11-13T20:22:43.538Z,3.87
2018-11-13T20:25:20.158Z,3.97
2018-11-13T20:27:48.225Z,4.50
2018-11-13T20:30:26.503Z,3.23
2018-11-13T20:32:54.740Z,6.03
2018-11-13T20:35:22.968Z,4.50
2018-11-13T20:37:51.634Z,3.97
2018-11-13T20:40:20.931Z,4.33
2018-11-13T20:42:50.259Z,4.13
2018-11-13T20:45:18.436Z,4.30
2018-11-13T20:47:46.515Z,4.03
2018-11-13T20:50:16.214Z,3.87
2018-11-13T20:52:44.387Z,4.30
2018-11-13T20:55:12.610Z,3.70
2018-11-13T20:57:40.763Z,3.10
2018-11-13T21:00:12.537Z,4.53
2018-11-13T21:02:40.555Z,3.50
2018-11-13T21:05:08.734Z,3.23
2018-11-13T21:07:37.114Z,4.00
2018-11-13T21:10:07.183Z,3.93
2018-11-13T21:12:35.250Z,3.90
2018-11-13T21:15:03.395Z,3.77
2018-11-13T21:17:31.622Z,3.53
2018-11-13T21:19:59.558Z,6.23
2018-11-13T21:22:27.639Z,4.63
2018-11-13T21:24:55.823Z,4.30
2018-11-13T21:27:23.875Z,4.67
2018-11-13T21:29:52.088Z,4.58
2018-11-13T21:32:20.185Z,3.40
2018-11-13T21:34:48.291Z,4.50
2018-11-13T21:37:16.437Z,4.70
2018-11-13T21:39:44.446Z,5.20
2018-11-13T21:42:12.490Z,4.63
2018-11-13T21:44:41.511Z,5.10
2018-11-13T21:47:09.601Z,4.07
2018-11-13T21:49:37.784Z,5.53
2018-11-13T21:52:05.816Z,3.40
2018-11-13T21:54:33.874Z,3.37
2018-11-13T21:57:01.915Z,3.37
2018-11-13T21:59:29.982Z,4.47
2018-11-13T22:01:58.094Z,5.40
2018-11-13T22:04:26.180Z,4.57
2018-11-13T22:06:54.238Z,5.40
2018-11-13T22:09:22.327Z,4.00
2018-11-13T22:11:50.473Z,5.30
2018-11-13T22:14:18.650Z,4.63
2018-11-13T22:16:46.695Z,5.80
2018-11-13T22:19:14.689Z,4.20
2018-11-13T22:21:42.766Z,4.17
2018-11-13T22:24:10.820Z,3.80
2018-11-13T22:26:38.901Z,3.60
2018-11-13T22:29:07.068Z,4.73
2018-11-13T22:31:35.042Z,3.43
2018-11-13T22:34:03.154Z,4.30
2018-11-13T22:36:31.211Z,3.77
2018-11-13T22:38:59.336Z,4.57
2018-11-13T22:41:27.331Z,4.60
2018-11-13T22:43:55.415Z,4.37
2018-11-13T22:46:23.488Z,3.23
2018-11-13T22:48:51.585Z,2.67
2018-11-13T22:51:19.647Z,3.30
2018-11-13T22:53:47.731Z,4.60
2018-11-13T22:56:15.887Z,3.27
2018-11-13T22:58:43.991Z,3.33
2018-11-13T23:01:12.171Z,3.60
2018-11-13T23:03:40.150Z,4.37
2018-11-13T23:06:08.223Z,3.43
2018-11-13T23:08:36.291Z,3.60
2018-11-13T23:11:09.714Z,4.20
2018-11-13T23:13:37.775Z,3.23
2018-11-13T23:16:06.264Z,3.13
2018-11-13T23:18:34.338Z,3.90
2018-11-13T23:21:02.446Z,2.83
2018-11-13T23:23:30.526Z,3.40
2018-11-13T23:25:58.586Z,3.60
2018-11-13T23:28:26.730Z,3.17
2018-11-13T23:30:54.762Z,3.47
2018-11-13T23:33:22.831Z,4.17
2018-11-13T23:35:51.676Z,3.90
2018-11-13T23:38:19.748Z,3.50
2018-11-13T23:40:47.770Z,3.50
2018-11-13T23:43:15.807Z,4.80
2018-11-13T23:45:43.850Z,3.57
2018-11-13T23:48:11.875Z,3.30
2018-11-13T23:50:39.945Z,3.87
2018-11-13T23:53:08.099Z,5.00
2018-11-13T23:55:36.188Z,2.47
2018-11-13T23:58:04.250Z,3.20
